createdAt,value
2023-02-24T00:00:33.639Z,6.10
2023-02-24T00:03:10.806Z,6.30
2023-02-24T00:05:39.960Z,6.40
2023-02-24T00:08:07.482Z,6.20
2023-02-24T00:13:39.156Z,6.07
2023-02-24T00:16:07.512Z,6.53
2023-02-24T00:18:36.046Z,5.60
2023-02-24T00:21:08.102Z,6.73
2023-02-24T00:23:37.043Z,6.17
2023-02-24T00:26:06.573Z,5.57
2023-02-24T00:28:34.476Z,5.87
2023-02-24T00:31:07.103Z,5.27
2023-02-24T00:33:36.368Z,6.43
2023-02-24T00:36:08.754Z,6.10
2023-02-24T00:38:36.887Z,6.23
2023-02-24T00:41:12.277Z,6.23
2023-02-24T00:46:45.516Z,6.23
2023-02-24T00:49:17.791Z,5.97
2023-02-24T00:51:49.149Z,6.27
2023-02-24T00:54:18.801Z,6.50
2023-02-24T00:56:47.690Z,6.30
2023-02-24T00:59:18.527Z,6.57
2023-02-24T01:01:49.776Z,6.00
2023-02-24T01:04:19.056Z,5.83
2023-02-24T01:06:48.558Z,5.67
2023-02-24T01:09:18.961Z,6.43
2023-02-24T01:12:17.634Z,6.30
2023-02-24T01:14:47.508Z,5.90
2023-02-24T01:17:18.141Z,6.53
2023-02-24T01:19:48.920Z,6.17
2023-02-24T01:22:19.647Z,5.87
2023-02-24T01:24:48.192Z,6.40
2023-02-24T01:30:04.847Z,5.47
2023-02-24T01:32:33.805Z,5.40
2023-02-24T01:35:01.418Z,5.47
2023-02-24T01:37:29.783Z,6.50
2023-02-24T01:42:49.244Z,5.43
2023-02-24T01:45:28.489Z,5.60
2023-02-24T01:48:02.079Z,5.20
2023-02-24T01:53:31.804Z,6.17
2023-02-24T01:56:00.427Z,5.73
2023-02-24T01:58:30.374Z,5.47
2023-02-24T02:00:58.096Z,6.20
2023-02-24T02:06:11.041Z,6.47
2023-02-24T02:08:41.338Z,7.30
2023-02-24T02:14:09.849Z,7.20
2023-02-24T02:16:49.390Z,6.60
2023-02-24T02:19:38.041Z,7.30
2023-02-24T02:22:17.412Z,7.73
2023-02-24T02:24:48.256Z,7.37
2023-02-24T02:27:23.404Z,7.70
2023-02-24T02:30:43.929Z,7.57
2023-02-24T02:33:51.800Z,7.03
2023-02-24T02:36:23.938Z,7.33
2023-02-24T02:38:57.348Z,7.80
2023-02-24T02:44:32.143Z,6.70
2023-02-24T02:47:02.887Z,6.97
2023-02-24T02:49:35.340Z,7.13
2023-02-24T02:52:07.293Z,7.10
2023-02-24T02:57:26.283Z,7.40
2023-02-24T02:59:56.854Z,7.40
2023-02-24T03:02:28.401Z,6.57
2023-02-24T03:05:00.649Z,7.40
2023-02-24T03:07:31.802Z,7.73
2023-02-24T03:10:03.820Z,7.30
2023-02-24T03:12:32.858Z,7.00
2023-02-24T03:15:04.732Z,7.27
2023-02-24T03:20:49.043Z,6.93
2023-02-24T03:23:18.263Z,6.87
2023-02-24T03:25:49.815Z,6.87
2023-02-24T03:28:22.518Z,6.40
2023-02-24T03:30:54.563Z,6.90
2023-02-24T03:33:26.351Z,6.57
2023-02-24T03:36:01.469Z,6.50
2023-02-24T03:38:32.166Z,6.47
2023-02-24T03:40:59.971Z,6.80
2023-02-24T03:43:33.160Z,6.10
2023-02-24T03:46:01.654Z,6.67
2023-02-24T03:48:30.462Z,6.37
2023-02-24T03:51:00.668Z,6.67
2023-02-24T03:53:52.075Z,6.67
2023-02-24T03:56:29.709Z,6.87
2023-02-24T03:59:12.715Z,5.63
2023-02-24T04:01:46.513Z,5.63
2023-02-24T04:04:18.961Z,5.80
2023-02-24T04:10:09.136Z,5.33
2023-02-24T04:12:42.649Z,5.30
2023-02-24T04:15:15.231Z,5.53
2023-02-24T04:17:46.227Z,4.63
2023-02-24T04:23:08.599Z,5.10
2023-02-24T04:25:40.189Z,5.33
2023-02-24T04:28:08.754Z,5.90
2023-02-24T04:30:40.362Z,4.83
2023-02-24T04:33:09.726Z,5.17
2023-02-24T04:35:38.044Z,5.50
2023-02-24T04:38:05.716Z,4.70
2023-02-24T04:43:37.032Z,5.10
2023-02-24T04:46:07.983Z,5.13
2023-02-24T04:48:35.812Z,4.70
2023-02-24T04:51:03.718Z,5.23
2023-02-24T04:56:33.694Z,5.13
2023-02-24T04:59:02.539Z,4.83
2023-02-24T05:01:31.131Z,5.40
2023-02-24T05:04:00.044Z,4.57
2023-02-24T05:09:22.232Z,5.10
2023-02-24T05:14:50.044Z,5.10
2023-02-24T05:17:18.649Z,5.30
2023-02-24T05:20:03.769Z,4.97
2023-02-24T05:22:31.189Z,5.03
2023-02-24T05:24:58.629Z,6.20
2023-02-24T05:27:27.953Z,5.10
2023-02-24T05:29:56.700Z,5.20
2023-02-24T05:32:25.210Z,5.30
2023-02-24T05:34:52.780Z,5.50
2023-02-24T05:37:20.442Z,4.93
2023-02-24T05:39:47.858Z,4.93
2023-02-24T05:42:15.727Z,5.57
2023-02-24T05:44:43.337Z,5.57
2023-02-24T05:47:12.297Z,4.93
2023-02-24T05:49:39.844Z,5.00
2023-02-24T05:52:09.148Z,4.77
2023-02-24T05:54:38.793Z,4.60
2023-02-24T05:57:08.307Z,5.10
2023-02-24T05:59:36.279Z,5.47
2023-02-24T06:02:09.270Z,5.70
2023-02-24T06:04:50.538Z,5.13
2023-02-24T06:07:21.915Z,5.63
2023-02-24T06:09:53.381Z,6.10
2023-02-24T06:12:21.975Z,5.63
2023-02-24T06:14:49.437Z,5.90
2023-02-24T06:17:18.307Z,6.30
2023-02-24T06:19:48.783Z,6.20
2023-02-24T06:22:19.003Z,7.10
2023-02-24T06:24:49.055Z,6.67
2023-02-24T06:30:10.200Z,7.00
2023-02-24T06:35:42.433Z,6.10
2023-02-24T06:38:09.962Z,5.53
2023-02-24T06:40:37.654Z,5.63
2023-02-24T06:43:05.075Z,5.40
2023-02-24T06:45:32.486Z,5.57
2023-02-24T06:48:00.174Z,6.13
2023-02-24T06:50:28.688Z,5.37
2023-02-24T06:53:00.517Z,5.67
2023-02-24T06:55:28.273Z,5.80
2023-02-24T06:57:57.812Z,5.97
2023-02-24T07:00:36.813Z,6.27
2023-02-24T07:03:14.711Z,5.90
2023-02-24T07:05:50.329Z,5.73
2023-02-24T07:08:22.688Z,6.63
2023-02-24T07:10:54.592Z,6.17
2023-02-24T07:13:22.610Z,6.07
2023-02-24T07:18:56.381Z,5.73
2023-02-24T07:21:25.246Z,6.07
2023-02-24T07:23:58.809Z,5.50
2023-02-24T07:26:30.202Z,5.57
2023-02-24T07:31:45.811Z,5.57
2023-02-24T07:34:14.867Z,4.90
2023-02-24T07:36:49.152Z,5.17
2023-02-24T07:39:19.174Z,5.73
2023-02-24T07:44:46.196Z,5.07
2023-02-24T07:47:15.560Z,5.33
2023-02-24T07:49:43.013Z,4.90
2023-02-24T07:52:11.379Z,4.97
2023-02-24T07:54:40.472Z,5.70
2023-02-24T07:57:13.136Z,5.60
2023-02-24T07:59:46.642Z,5.37
2023-02-24T08:05:17.846Z,5.80
2023-02-24T08:07:49.647Z,5.23
2023-02-24T08:10:25.556Z,5.33
2023-02-24T08:12:55.623Z,5.10
2023-02-24T08:15:24.899Z,5.13
2023-02-24T08:17:55.817Z,5.67
2023-02-24T08:20:25.726Z,5.63
2023-02-24T08:25:58.372Z,5.03
2023-02-24T08:31:28.737Z,4.93
2023-02-24T08:33:56.193Z,4.73
2023-02-24T08:36:25.980Z,4.90
2023-02-24T08:38:53.707Z,5.23
2023-02-24T08:44:27.113Z,5.33
2023-02-24T08:46:55.136Z,5.27
2023-02-24T08:49:24.737Z,5.07
2023-02-24T08:51:53.451Z,6.17
2023-02-24T08:54:27.089Z,5.73
2023-02-24T08:56:56.658Z,5.50
2023-02-24T09:02:29.417Z,5.30
2023-02-24T09:07:59.721Z,6.27
2023-02-24T09:10:28.413Z,6.43
2023-02-24T09:12:55.883Z,7.07
2023-02-24T09:15:25.438Z,6.00
2023-02-24T09:21:15.877Z,6.10
2023-02-24T09:26:48.718Z,6.30
2023-02-24T09:29:30.181Z,6.63
2023-02-24T09:32:04.467Z,7.17
2023-02-24T09:34:33.586Z,7.83
2023-02-24T09:37:03.801Z,6.67
2023-02-24T09:39:53.317Z,7.10
2023-02-24T09:42:33.210Z,6.77
2023-02-24T09:48:10.395Z,6.10
2023-02-24T09:53:52.413Z,6.03
2023-02-24T09:56:27.476Z,5.40
2023-02-24T09:59:00.757Z,5.07
2023-02-24T10:01:35.698Z,5.20
2023-02-24T10:04:20.296Z,5.50
2023-02-24T10:06:50.163Z,5.07
2023-02-24T10:09:26.808Z,4.87
2023-02-24T10:12:03.908Z,4.90
2023-02-24T10:14:43.686Z,4.57
2023-02-24T10:17:30.500Z,4.50
2023-02-24T10:22:53.604Z,4.97
2023-02-24T10:25:35.961Z,5.10
2023-02-24T10:28:08.582Z,4.60
2023-02-24T10:30:41.672Z,5.47
2023-02-24T10:33:20.400Z,5.90
2023-02-24T10:38:48.628Z,5.20
2023-02-24T10:41:17.908Z,5.10
2023-02-24T10:46:42.113Z,5.03
2023-02-24T10:49:16.110Z,5.70
2023-02-24T10:51:48.899Z,5.57
2023-02-24T10:54:34.183Z,5.70
2023-02-24T10:57:18.431Z,5.87
2023-02-24T11:00:09.848Z,6.33
2023-02-24T11:02:56.418Z,6.30
2023-02-24T11:08:39.874Z,7.17
2023-02-24T11:11:20.053Z,7.50
2023-02-24T11:17:07.928Z,7.37
2023-02-24T11:19:40.681Z,6.70
2023-02-24T11:22:09.086Z,7.93
2023-02-24T11:27:42.441Z,14.15
2023-02-24T11:30:18.437Z,10.03
2023-02-24T11:33:00.094Z,9.80
2023-02-24T11:35:32.539Z,9.97
2023-02-24T11:38:03.402Z,8.43
2023-02-24T11:40:34.868Z,9.00
2023-02-24T11:43:07.329Z,7.57
2023-02-24T11:45:38.001Z,9.00
2023-02-24T11:48:14.849Z,9.53
2023-02-24T11:53:52.236Z,8.87
2023-02-24T11:59:30.829Z,9.17
2023-02-24T12:02:05.522Z,9.20
2023-02-24T12:04:37.780Z,9.03
2023-02-24T12:07:07.826Z,8.80
2023-02-24T12:09:39.259Z,8.50
2023-02-24T12:12:13.371Z,8.77
2023-02-24T12:14:47.676Z,9.40
2023-02-24T12:17:18.804Z,8.60
2023-02-24T12:19:57.517Z,10.53
2023-02-24T12:22:28.464Z,8.73
2023-02-24T12:24:55.881Z,11.23
2023-02-24T12:27:34.421Z,12.20
2023-02-24T12:30:22.723Z,11.93
2023-02-24T12:33:00.278Z,12.77
2023-02-24T12:35:39.409Z,13.27
2023-02-24T12:38:19.502Z,13.17
2023-02-24T12:40:53.038Z,12.30
2023-02-24T12:46:14.706Z,13.17
2023-02-24T12:49:04.610Z,14.10
2023-02-24T12:51:37.545Z,15.53
2023-02-24T12:54:10.211Z,13.07
2023-02-24T12:56:44.244Z,13.53
2023-02-24T13:02:02.589Z,13.07
2023-02-24T13:04:37.678Z,13.70
2023-02-24T13:07:21.912Z,14.03
2023-02-24T13:12:55.561Z,15.00
2023-02-24T13:15:25.357Z,13.60
2023-02-24T13:17:55.783Z,14.10
2023-02-24T13:20:31.083Z,14.27
2023-02-24T13:23:01.138Z,14.93
2023-02-24T13:28:33.185Z,13.97
2023-02-24T13:31:03.298Z,12.93
2023-02-24T13:33:33.519Z,12.90
2023-02-24T13:36:13.480Z,14.93
2023-02-24T13:38:44.114Z,11.67
2023-02-24T13:41:24.119Z,14.00
2023-02-24T13:43:57.824Z,14.83
2023-02-24T13:46:27.078Z,14.27
2023-02-24T13:49:01.819Z,14.73
2023-02-24T13:51:59.102Z,14.43
2023-02-24T13:54:39.159Z,14.37
2023-02-24T13:57:17.944Z,12.73
2023-02-24T14:00:09.992Z,12.17
2023-02-24T14:02:42.755Z,12.03
2023-02-24T14:05:13.759Z,13.07
2023-02-24T14:07:41.555Z,10.53
2023-02-24T14:13:17.094Z,12.43
2023-02-24T14:15:46.196Z,12.97
2023-02-24T14:18:19.816Z,11.80
2023-02-24T14:20:47.278Z,13.07
2023-02-24T14:26:20.323Z,14.07
2023-02-24T14:28:54.970Z,13.20
2023-02-24T14:31:23.818Z,12.73
2023-02-24T14:33:55.785Z,12.33
2023-02-24T14:39:16.987Z,12.90
2023-02-24T14:41:44.803Z,11.40
2023-02-24T14:44:22.709Z,12.53
2023-02-24T14:46:52.243Z,11.07
2023-02-24T14:52:11.776Z,11.60
2023-02-24T14:54:44.766Z,12.23
2023-02-24T14:57:13.912Z,12.07
2023-02-24T14:59:47.270Z,11.23
2023-02-24T15:02:17.968Z,12.27
2023-02-24T15:07:51.773Z,11.60
2023-02-24T15:10:22.608Z,12.53
2023-02-24T15:12:51.675Z,12.30
2023-02-24T15:15:23.135Z,12.23
2023-02-24T15:17:54.539Z,13.17
2023-02-24T15:20:40.806Z,12.33
2023-02-24T15:23:26.275Z,12.70
2023-02-24T15:29:01.431Z,11.90
2023-02-24T15:34:29.292Z,12.50
2023-02-24T15:37:00.053Z,13.67
2023-02-24T15:39:29.415Z,13.37
2023-02-24T15:42:34.620Z,13.80
2023-02-24T15:45:03.333Z,12.77
2023-02-24T15:47:42.207Z,12.10
2023-02-24T15:53:09.039Z,12.10
2023-02-24T15:55:36.504Z,11.77
2023-02-24T15:58:05.072Z,11.27
2023-02-24T16:00:32.591Z,11.33
2023-02-24T16:03:01.363Z,11.47
2023-02-24T16:08:32.071Z,11.23
2023-02-24T16:10:59.896Z,12.30
2023-02-24T16:13:27.735Z,12.70
2023-02-24T16:15:56.221Z,11.70
2023-02-24T16:21:21.175Z,13.77
2023-02-24T16:26:51.670Z,12.33
2023-02-24T16:29:19.123Z,11.43
2023-02-24T16:31:46.870Z,11.93
2023-02-24T16:34:16.467Z,11.67
2023-02-24T16:36:45.353Z,11.10
2023-02-24T16:39:13.850Z,9.30
2023-02-24T16:41:41.436Z,11.00
2023-02-24T16:44:10.395Z,11.63
2023-02-24T16:49:29.308Z,12.63
2023-02-24T16:54:56.016Z,11.37
2023-02-24T16:57:25.550Z,12.10
2023-02-24T16:59:53.214Z,12.63
2023-02-24T17:02:23.079Z,13.70
2023-02-24T17:04:50.626Z,12.80
2023-02-24T17:10:19.428Z,14.10
2023-02-24T17:12:47.001Z,14.30
2023-02-24T17:15:16.970Z,11.50
2023-02-24T17:17:44.507Z,13.03
2023-02-24T17:23:04.934Z,10.97
2023-02-24T17:25:34.095Z,10.10
2023-02-24T17:28:01.558Z,10.00
2023-02-24T17:30:30.897Z,8.37
2023-02-24T17:32:58.425Z,9.93
2023-02-24T17:35:26.852Z,8.67
2023-02-24T17:40:58.341Z,7.03
2023-02-24T17:43:25.872Z,6.53
2023-02-24T17:45:53.601Z,7.27
2023-02-24T17:48:22.144Z,6.37
2023-02-24T17:50:49.912Z,6.17
2023-02-24T17:53:17.340Z,5.30
2023-02-24T17:56:01.623Z,5.37
2023-02-24T17:58:32.054Z,5.47
2023-02-24T18:01:01.735Z,5.20
2023-02-24T18:03:29.829Z,6.33
2023-02-24T18:09:09.806Z,7.10
2023-02-24T18:11:37.253Z,6.20
2023-02-24T18:14:06.066Z,8.40
2023-02-24T18:16:33.619Z,4.37
2023-02-24T18:21:49.665Z,4.90
2023-02-24T18:24:17.205Z,3.50
2023-02-24T18:26:44.655Z,4.20
2023-02-24T18:29:13.473Z,3.93
2023-02-24T18:31:41.398Z,4.90
2023-02-24T18:34:08.952Z,3.80
2023-02-24T18:36:36.391Z,3.60
2023-02-24T18:39:04.362Z,3.60
2023-02-24T18:41:31.924Z,4.60
2023-02-24T18:43:59.790Z,4.40
2023-02-24T18:46:28.720Z,3.70
2023-02-24T18:49:09.056Z,3.70
2023-02-24T18:51:36.762Z,3.60
2023-02-24T18:54:04.906Z,3.67
2023-02-24T18:56:34.634Z,3.10
2023-02-24T18:59:03.043Z,3.70
2023-02-24T19:01:33.588Z,3.60
2023-02-24T19:04:01.681Z,3.83
2023-02-24T19:09:21.364Z,4.57
2023-02-24T19:11:49.377Z,3.90
2023-02-24T19:14:16.975Z,2.83
2023-02-24T19:19:49.543Z,2.70
2023-02-24T19:25:19.706Z,2.53
2023-02-24T19:27:48.067Z,2.70
2023-02-24T19:30:16.239Z,3.30
2023-02-24T19:32:43.771Z,3.53
2023-02-24T19:35:13.502Z,3.10
2023-02-24T19:40:52.270Z,4.13
2023-02-24T19:43:19.750Z,3.67
2023-02-24T19:45:47.175Z,3.50
2023-02-24T19:48:14.653Z,4.17
2023-02-24T19:50:43.480Z,3.00
2023-02-24T19:53:10.941Z,3.90
2023-02-24T19:55:38.513Z,2.93
2023-02-24T19:58:05.914Z,3.07
2023-02-24T20:00:33.384Z,3.43
2023-02-24T20:06:05.541Z,4.13
2023-02-24T20:08:35.339Z,3.20
2023-02-24T20:11:03.866Z,3.27
2023-02-24T20:13:31.997Z,3.80
2023-02-24T20:16:06.998Z,4.30
2023-02-24T20:18:34.610Z,4.07
2023-02-24T20:24:11.147Z,4.27
2023-02-24T20:29:41.676Z,4.20
2023-02-24T20:32:09.482Z,4.07
2023-02-24T20:34:38.271Z,3.67
2023-02-24T20:37:06.471Z,4.30
2023-02-24T20:42:38.060Z,4.03
2023-02-24T20:45:07.874Z,4.30
2023-02-24T20:47:35.337Z,4.53
2023-02-24T20:50:03.058Z,4.80
2023-02-24T20:55:28.057Z,4.63
2023-02-24T20:57:56.850Z,4.17
2023-02-24T21:03:26.650Z,4.73
2023-02-24T21:06:04.518Z,4.23
2023-02-24T21:08:36.399Z,4.00
2023-02-24T21:14:08.009Z,3.50
2023-02-24T21:16:36.166Z,4.00
2023-02-24T21:19:03.595Z,3.60
2023-02-24T21:21:31.128Z,3.33
2023-02-24T21:26:47.272Z,4.17
2023-02-24T21:29:16.307Z,3.60
2023-02-24T21:31:44.000Z,3.63
2023-02-24T21:34:11.985Z,3.80
2023-02-24T21:36:39.471Z,4.07
2023-02-24T21:39:07.331Z,3.73
2023-02-24T21:41:35.580Z,4.43
2023-02-24T21:44:03.726Z,4.57
2023-02-24T21:46:32.528Z,4.17
2023-02-24T21:49:00.799Z,4.07
2023-02-24T21:51:29.072Z,4.63
2023-02-24T21:53:57.336Z,3.83
2023-02-24T21:56:26.972Z,4.10
2023-02-24T21:58:57.488Z,3.73
2023-02-24T22:01:26.961Z,4.27
2023-02-24T22:03:56.390Z,3.67
2023-02-24T22:06:25.960Z,4.20
2023-02-24T22:08:53.676Z,3.60
2023-02-24T22:11:22.454Z,3.60
2023-02-24T22:13:50.171Z,4.63
2023-02-24T22:16:22.427Z,4.63
2023-02-24T22:18:50.961Z,4.57
2023-02-24T22:21:21.335Z,4.20
2023-02-24T22:23:50.248Z,4.40
2023-02-24T22:26:18.588Z,4.83
2023-02-24T22:28:47.609Z,4.37
2023-02-24T22:31:17.053Z,4.77
2023-02-24T22:33:45.417Z,4.03
2023-02-24T22:36:14.411Z,4.67
2023-02-24T22:38:45.429Z,4.00
2023-02-24T22:41:14.515Z,2.87
2023-02-24T22:43:42.553Z,3.80
2023-02-24T22:46:14.191Z,3.50
2023-02-24T22:51:45.586Z,4.37
2023-02-24T22:54:14.432Z,4.20
2023-02-24T22:56:41.914Z,3.30
2023-02-24T22:59:09.379Z,4.13
2023-02-24T23:04:39.694Z,3.40
2023-02-24T23:07:07.118Z,5.20
2023-02-24T23:09:35.908Z,4.20
2023-02-24T23:14:51.858Z,4.70
2023-02-24T23:17:19.320Z,4.53
2023-02-24T23:19:46.784Z,5.17
2023-02-24T23:22:14.631Z,5.83
2023-02-24T23:24:43.394Z,5.17
2023-02-24T23:27:10.916Z,4.90
2023-02-24T23:29:38.370Z,4.37
2023-02-24T23:32:06.058Z,5.13
2023-02-24T23:34:33.699Z,4.87
2023-02-24T23:37:01.139Z,5.00
2023-02-24T23:39:28.867Z,4.37
2023-02-24T23:41:57.879Z,4.47
2023-02-24T23:44:25.455Z,5.10
2023-02-24T23:46:52.920Z,4.47
2023-02-24T23:49:20.331Z,4.80
2023-02-24T23:51:49.095Z,4.77
2023-02-24T23:54:16.834Z,5.03
2023-02-24T23:59:48.024Z,4.40
